Other Surface Observations
Issued by NWS Missoula, MT

Home | Current Version | Previous Version | Text Only | Print | Product List | Glossary On
Versions: 1 2 3 4 5 6 7 8 9 10 11 12 13 14 15 16 17 18 19 20 21 22 23 24 25 26 27 28 29 30 31 32 33 34 35 36 37 38 39 40 41 42 43 44 45 46 47 48 49 50
000
SXUS55 KMSO 221703
OSOMSO
MONTANA AWOS SUMMARY
NATIONAL WEATHER SERVICE MISSOULA MT
1003 AM MST MON DEC 22 2014

Montana AWOS Reports

LAUREL      |K6S8 221655Z AUTO 26011G15KT 40SM 02/M07 A2980 RMK AO1 T00221071
ROUNDUP     |KRPX 221655Z AUTO 00000KT 40SM 03/M06 A2971 RMK AO1 T00281060
TWIN BRIDGES|K7S1 221655Z AUTO 01008KT 40SM M01/M06 A2993 RMK AO1 T10051055
SCOBEY      |K9S2 221655Z AUTO 28017G21KT 1 1/2SM M06/M09 A2965 RMK AO1 T10551093




USA.gov is the U.S. government's official web portal to all federal, state and local government web resources and services.